sensor_id;sensor_type;location;lat;lon;timestamp;P1;durP1;ratioP1;P2;durP2;ratioP2
51090;SDS011;37136;43.614;3.908;2023-03-11T00:00:29;4.75;;;1.52;;
51090;SDS011;37136;43.614;3.908;2023-03-11T00:02:56;3.17;;;1.17;;
51090;SDS011;37136;43.614;3.908;2023-03-11T00:05:24;4.38;;;1.20;;
51090;SDS011;37136;43.614;3.908;2023-03-11T00:07:50;4.68;;;1.30;;
51090;SDS011;37136;43.614;3.908;2023-03-11T00:10:27;3.72;;;1.38;;
51090;SDS011;37136;43.614;3.908;2023-03-11T00:12:54;4.15;;;1.50;;
51090;SDS011;37136;43.614;3.908;2023-03-11T00:15:20;7.13;;;2.17;;
51090;SDS011;37136;43.614;3.908;2023-03-11T00:17:47;3.08;;;1.60;;
51090;SDS011;37136;43.614;3.908;2023-03-11T00:20:17;2.38;;;1.38;;
51090;SDS011;37136;43.614;3.908;2023-03-11T00:22:43;3.88;;;1.58;;
51090;SDS011;37136;43.614;3.908;2023-03-11T00:25:10;6.15;;;1.40;;
51090;SDS011;37136;43.614;3.908;2023-03-11T00:27:36;4.53;;;1.58;;
51090;SDS011;37136;43.614;3.908;2023-03-11T00:30:02;3.78;;;1.50;;
51090;SDS011;37136;43.614;3.908;2023-03-11T00:32:29;2.97;;;1.17;;
51090;SDS011;37136;43.614;3.908;2023-03-11T00:34:55;3.33;;;1.50;;
51090;SDS011;37136;43.614;3.908;2023-03-11T00:37:21;4.38;;;1.52;;
51090;SDS011;37136;43.614;3.908;2023-03-11T00:39:47;4.35;;;1.45;;
51090;SDS011;37136;43.614;3.908;2023-03-11T00:42:13;4.78;;;1.52;;
51090;SDS011;37136;43.614;3.908;2023-03-11T00:44:39;4.07;;;1.50;;
51090;SDS011;37136;43.614;3.908;2023-03-11T00:47:05;1.73;;;1.05;;
51090;SDS011;37136;43.614;3.908;2023-03-11T00:49:31;5.05;;;1.75;;
51090;SDS011;37136;43.614;3.908;2023-03-11T00:51:57;8.00;;;2.60;;
51090;SDS011;37136;43.614;3.908;2023-03-11T00:54:23;10.13;;;2.80;;
51090;SDS011;37136;43.614;3.908;2023-03-11T00:56:50;12.85;;;2.40;;
51090;SDS011;37136;43.614;3.908;2023-03-11T00:59:16;11.75;;;3.35;;
51090;SDS011;37136;43.614;3.908;2023-03-11T01:01:42;11.30;;;3.28;;
51090;SDS011;37136;43.614;3.908;2023-03-11T01:04:08;11.27;;;2.35;;
51090;SDS011;37136;43.614;3.908;2023-03-11T01:06:34;11.32;;;3.35;;
51090;SDS011;37136;43.614;3.908;2023-03-11T01:09:00;16.95;;;3.58;;
51090;SDS011;37136;43.614;3.908;2023-03-11T01:11:26;13.20;;;3.60;;
51090;SDS011;37136;43.614;3.908;2023-03-11T01:13:52;14.52;;;3.20;;
51090;SDS011;37136;43.614;3.908;2023-03-11T01:16:18;10.73;;;2.90;;
51090;SDS011;37136;43.614;3.908;2023-03-11T01:18:45;8.75;;;3.08;;
51090;SDS011;37136;43.614;3.908;2023-03-11T01:21:11;16.92;;;3.28;;
51090;SDS011;37136;43.614;3.908;2023-03-11T01:23:38;12.00;;;3.13;;
51090;SDS011;37136;43.614;3.908;2023-03-11T01:26:04;15.73;;;3.72;;
51090;SDS011;37136;43.614;3.908;2023-03-11T01:28:30;11.10;;;3.22;;
51090;SDS011;37136;43.614;3.908;2023-03-11T01:30:56;14.15;;;3.13;;
51090;SDS011;37136;43.614;3.908;2023-03-11T01:33:22;8.77;;;2.78;;
51090;SDS011;37136;43.614;3.908;2023-03-11T01:35:48;12.98;;;3.03;;
51090;SDS011;37136;43.614;3.908;2023-03-11T01:38:14;13.63;;;3.35;;
51090;SDS011;37136;43.614;3.908;2023-03-11T01:40:42;12.88;;;3.75;;
51090;SDS011;37136;43.614;3.908;2023-03-11T01:48:20;15.02;;;4.03;;
51090;SDS011;37136;43.614;3.908;2023-03-11T01:50:47;14.93;;;3.75;;
51090;SDS011;37136;43.614;3.908;2023-03-11T01:53:14;9.33;;;3.37;;
51090;SDS011;37136;43.614;3.908;2023-03-11T01:55:41;15.43;;;4.68;;
51090;SDS011;37136;43.614;3.908;2023-03-11T01:58:09;13.55;;;3.45;;
51090;SDS011;37136;43.614;3.908;2023-03-11T02:00:36;14.57;;;3.63;;
51090;SDS011;37136;43.614;3.908;2023-03-11T02:03:08;10.23;;;3.08;;
51090;SDS011;37136;43.614;3.908;2023-03-11T02:05:35;5.88;;;2.35;;
51090;SDS011;37136;43.614;3.908;2023-03-11T02:08:01;3.70;;;1.58;;
51090;SDS011;37136;43.614;3.908;2023-03-11T02:10:27;2.13;;;1.10;;
51090;SDS011;37136;43.614;3.908;2023-03-11T02:12:54;3.25;;;0.77;;
51090;SDS011;37136;43.614;3.908;2023-03-11T02:15:20;3.00;;;1.02;;
51090;SDS011;37136;43.614;3.908;2023-03-11T02:17:46;4.47;;;0.63;;
51090;SDS011;37136;43.614;3.908;2023-03-11T02:22:57;2.75;;;1.05;;
51090;SDS011;37136;43.614;3.908;2023-03-11T02:27:51;3.05;;;0.50;;
51090;SDS011;37136;43.614;3.908;2023-03-11T02:30:18;0.63;;;0.40;;
51090;SDS011;37136;43.614;3.908;2023-03-11T02:32:45;0.43;;;0.30;;
51090;SDS011;37136;43.614;3.908;2023-03-11T02:35:14;2.45;;;0.40;;
51090;SDS011;37136;43.614;3.908;2023-03-11T02:37:44;0.47;;;0.38;;
51090;SDS011;37136;43.614;3.908;2023-03-11T02:43:01;0.30;;;0.30;;
51090;SDS011;37136;43.614;3.908;2023-03-11T02:45:28;0.38;;;0.38;;
51090;SDS011;37136;43.614;3.908;2023-03-11T02:47:55;0.93;;;0.50;;
51090;SDS011;37136;43.614;3.908;2023-03-11T02:50:22;2.38;;;0.93;;
51090;SDS011;37136;43.614;3.908;2023-03-11T02:52:52;0.57;;;0.40;;
51090;SDS011;37136;43.614;3.908;2023-03-11T02:55:18;2.25;;;0.30;;
51090;SDS011;37136;43.614;3.908;2023-03-11T02:57:45;0.30;;;0.30;;
51090;SDS011;37136;43.614;3.908;2023-03-11T03:00:12;0.40;;;0.20;;
51090;SDS011;37136;43.614;3.908;2023-03-11T03:02:40;1.20;;;0.40;;
51090;SDS011;37136;43.614;3.908;2023-03-11T03:05:06;0.20;;;0.20;;
51090;SDS011;37136;43.614;3.908;2023-03-11T03:07:33;5.68;;;0.95;;
51090;SDS011;37136;43.614;3.908;2023-03-11T03:09:59;2.15;;;0.30;;
51090;SDS011;37136;43.614;3.908;2023-03-11T03:12:25;1.02;;;0.20;;
51090;SDS011;37136;43.614;3.908;2023-03-11T03:14:51;0.85;;;0.28;;
51090;SDS011;37136;43.614;3.908;2023-03-11T03:17:17;0.20;;;0.20;;
51090;SDS011;37136;43.614;3.908;2023-03-11T03:19:43;0.30;;;0.30;;
51090;SDS011;37136;43.614;3.908;2023-03-11T03:22:09;1.58;;;0.30;;
51090;SDS011;37136;43.614;3.908;2023-03-11T03:24:35;1.38;;;0.35;;
51090;SDS011;37136;43.614;3.908;2023-03-11T03:27:01;0.75;;;0.43;;
51090;SDS011;37136;43.614;3.908;2023-03-11T03:29:27;0.70;;;0.35;;
51090;SDS011;37136;43.614;3.908;2023-03-11T03:31:54;0.25;;;0.20;;
51090;SDS011;37136;43.614;3.908;2023-03-11T03:34:20;0.40;;;0.38;;
51090;SDS011;37136;43.614;3.908;2023-03-11T03:36:46;1.30;;;0.30;;
51090;SDS011;37136;43.614;3.908;2023-03-11T03:39:12;0.47;;;0.20;;
51090;SDS011;37136;43.614;3.908;2023-03-11T03:41:39;0.20;;;0.20;;
51090;SDS011;37136;43.614;3.908;2023-03-11T03:44:05;0.13;;;0.13;;
51090;SDS011;37136;43.614;3.908;2023-03-11T03:46:31;0.35;;;0.35;;
51090;SDS011;37136;43.614;3.908;2023-03-11T03:48:57;0.50;;;0.28;;
51090;SDS011;37136;43.614;3.908;2023-03-11T03:51:23;0.68;;;0.30;;
51090;SDS011;37136;43.614;3.908;2023-03-11T03:53:49;0.20;;;0.20;;
51090;SDS011;37136;43.614;3.908;2023-03-11T03:56:16;0.40;;;0.40;;
51090;SDS011;37136;43.614;3.908;2023-03-11T03:58:42;0.60;;;0.30;;
51090;SDS011;37136;43.614;3.908;2023-03-11T04:01:09;1.13;;;0.30;;
51090;SDS011;37136;43.614;3.908;2023-03-11T04:03:35;0.80;;;0.28;;
51090;SDS011;37136;43.614;3.908;2023-03-11T04:06:16;0.45;;;0.30;;
51090;SDS011;37136;43.614;3.908;2023-03-11T04:08:43;0.38;;;0.30;;
51090;SDS011;37136;43.614;3.908;2023-03-11T04:11:09;1.13;;;0.40;;
51090;SDS011;37136;43.614;3.908;2023-03-11T04:13:35;0.30;;;0.30;;
51090;SDS011;37136;43.614;3.908;2023-03-11T04:16:02;1.55;;;0.30;;
51090;SDS011;37136;43.614;3.908;2023-03-11T04:18:29;0.30;;;0.30;;
51090;SDS011;37136;43.614;3.908;2023-03-11T04:20:55;0.52;;;0.38;;
51090;SDS011;37136;43.614;3.908;2023-03-11T04:23:21;0.82;;;0.30;;
51090;SDS011;37136;43.614;3.908;2023-03-11T04:25:47;0.30;;;0.30;;
51090;SDS011;37136;43.614;3.908;2023-03-11T04:28:13;0.30;;;0.30;;
51090;SDS011;37136;43.614;3.908;2023-03-11T04:30:39;0.90;;;0.20;;
51090;SDS011;37136;43.614;3.908;2023-03-11T04:33:06;0.52;;;0.50;;
51090;SDS011;37136;43.614;3.908;2023-03-11T04:35:32;1.40;;;0.30;;
51090;SDS011;37136;43.614;3.908;2023-03-11T04:37:58;0.80;;;0.40;;
51090;SDS011;37136;43.614;3.908;2023-03-11T04:40:25;1.25;;;0.43;;
51090;SDS011;37136;43.614;3.908;2023-03-11T04:42:52;0.85;;;0.40;;
51090;SDS011;37136;43.614;3.908;2023-03-11T04:45:18;0.30;;;0.30;;
51090;SDS011;37136;43.614;3.908;2023-03-11T04:47:48;0.52;;;0.30;;
51090;SDS011;37136;43.614;3.908;2023-03-11T04:50:14;0.45;;;0.32;;
51090;SDS011;37136;43.614;3.908;2023-03-11T04:52:40;1.60;;;0.60;;
51090;SDS011;37136;43.614;3.908;2023-03-11T04:55:06;0.20;;;0.20;;
51090;SDS011;37136;43.614;3.908;2023-03-11T04:57:32;1.05;;;0.50;;
51090;SDS011;37136;43.614;3.908;2023-03-11T04:59:58;0.93;;;0.32;;
51090;SDS011;37136;43.614;3.908;2023-03-11T05:02:24;3.40;;;0.47;;
51090;SDS011;37136;43.614;3.908;2023-03-11T05:04:50;0.30;;;0.30;;
51090;SDS011;37136;43.614;3.908;2023-03-11T05:07:16;0.55;;;0.30;;
51090;SDS011;37136;43.614;3.908;2023-03-11T05:09:43;0.80;;;0.47;;
51090;SDS011;37136;43.614;3.908;2023-03-11T05:12:09;0.32;;;0.30;;
51090;SDS011;37136;43.614;3.908;2023-03-11T05:14:36;0.73;;;0.40;;
51090;SDS011;37136;43.614;3.908;2023-03-11T05:17:03;0.47;;;0.38;;
51090;SDS011;37136;43.614;3.908;2023-03-11T05:19:29;0.60;;;0.30;;
51090;SDS011;37136;43.614;3.908;2023-03-11T05:21:55;3.42;;;0.40;;
51090;SDS011;37136;43.614;3.908;2023-03-11T05:24:21;1.08;;;0.50;;
51090;SDS011;37136;43.614;3.908;2023-03-11T05:26:49;2.33;;;0.40;;
51090;SDS011;37136;43.614;3.908;2023-03-11T05:29:15;0.35;;;0.30;;
51090;SDS011;37136;43.614;3.908;2023-03-11T05:31:41;3.25;;;0.32;;
51090;SDS011;37136;43.614;3.908;2023-03-11T05:34:08;0.40;;;0.40;;
51090;SDS011;37136;43.614;3.908;2023-03-11T05:36:34;1.63;;;0.30;;
51090;SDS011;37136;43.614;3.908;2023-03-11T05:39:00;0.30;;;0.30;;
51090;SDS011;37136;43.614;3.908;2023-03-11T05:41:26;0.47;;;0.30;;
51090;SDS011;37136;43.614;3.908;2023-03-11T05:43:52;0.20;;;0.20;;
51090;SDS011;37136;43.614;3.908;2023-03-11T05:46:18;0.65;;;0.25;;
51090;SDS011;37136;43.614;3.908;2023-03-11T05:48:44;2.55;;;0.30;;
51090;SDS011;37136;43.614;3.908;2023-03-11T05:51:11;0.28;;;0.28;;
51090;SDS011;37136;43.614;3.908;2023-03-11T05:53:37;0.77;;;0.40;;
51090;SDS011;37136;43.614;3.908;2023-03-11T05:56:03;1.60;;;0.40;;
51090;SDS011;37136;43.614;3.908;2023-03-11T05:58:30;0.82;;;0.40;;
51090;SDS011;37136;43.614;3.908;2023-03-11T06:00:56;0.32;;;0.32;;
51090;SDS011;37136;43.614;3.908;2023-03-11T06:03:25;2.33;;;0.40;;
51090;SDS011;37136;43.614;3.908;2023-03-11T06:05:51;3.30;;;0.60;;
51090;SDS011;37136;43.614;3.908;2023-03-11T06:08:18;0.60;;;0.40;;
51090;SDS011;37136;43.614;3.908;2023-03-11T06:10:44;0.30;;;0.30;;
51090;SDS011;37136;43.614;3.908;2023-03-11T06:13:10;0.98;;;0.47;;
51090;SDS011;37136;43.614;3.908;2023-03-11T06:15:37;0.50;;;0.30;;
51090;SDS011;37136;43.614;3.908;2023-03-11T06:18:03;0.85;;;0.50;;
51090;SDS011;37136;43.614;3.908;2023-03-11T06:20:30;0.63;;;0.40;;
51090;SDS011;37136;43.614;3.908;2023-03-11T06:22:56;3.30;;;0.38;;
51090;SDS011;37136;43.614;3.908;2023-03-11T06:25:22;0.88;;;0.38;;
51090;SDS011;37136;43.614;3.908;2023-03-11T06:27:49;0.93;;;0.60;;
51090;SDS011;37136;43.614;3.908;2023-03-11T06:30:16;0.50;;;0.50;;
51090;SDS011;37136;43.614;3.908;2023-03-11T06:32:43;3.00;;;0.50;;
51090;SDS011;37136;43.614;3.908;2023-03-11T06:35:09;0.68;;;0.40;;
51090;SDS011;37136;43.614;3.908;2023-03-11T06:37:35;1.55;;;0.40;;
51090;SDS011;37136;43.614;3.908;2023-03-11T06:40:02;1.70;;;0.40;;
51090;SDS011;37136;43.614;3.908;2023-03-11T06:42:29;0.50;;;0.30;;
51090;SDS011;37136;43.614;3.908;2023-03-11T06:44:55;1.40;;;0.40;;
51090;SDS011;37136;43.614;3.908;2023-03-11T06:47:26;0.45;;;0.30;;
51090;SDS011;37136;43.614;3.908;2023-03-11T06:49:52;0.65;;;0.25;;
51090;SDS011;37136;43.614;3.908;2023-03-11T06:52:18;1.27;;;0.40;;
51090;SDS011;37136;43.614;3.908;2023-03-11T06:54:45;0.57;;;0.30;;
51090;SDS011;37136;43.614;3.908;2023-03-11T06:57:11;0.20;;;0.20;;
51090;SDS011;37136;43.614;3.908;2023-03-11T06:59:37;0.57;;;0.50;;
51090;SDS011;37136;43.614;3.908;2023-03-11T07:02:04;0.30;;;0.30;;
51090;SDS011;37136;43.614;3.908;2023-03-11T07:04:31;0.10;;;0.10;;
51090;SDS011;37136;43.614;3.908;2023-03-11T07:06:57;1.05;;;0.20;;
51090;SDS011;37136;43.614;3.908;2023-03-11T07:09:23;0.32;;;0.20;;
51090;SDS011;37136;43.614;3.908;2023-03-11T07:11:52;0.22;;;0.22;;
51090;SDS011;37136;43.614;3.908;2023-03-11T07:14:19;0.20;;;0.20;;
51090;SDS011;37136;43.614;3.908;2023-03-11T07:16:46;2.20;;;0.30;;
51090;SDS011;37136;43.614;3.908;2023-03-11T07:19:13;0.30;;;0.30;;
51090;SDS011;37136;43.614;3.908;2023-03-11T07:21:39;0.55;;;0.20;;
51090;SDS011;37136;43.614;3.908;2023-03-11T07:24:05;2.25;;;0.20;;
51090;SDS011;37136;43.614;3.908;2023-03-11T07:26:32;1.73;;;0.20;;
51090;SDS011;37136;43.614;3.908;2023-03-11T07:28:59;0.20;;;0.20;;
51090;SDS011;37136;43.614;3.908;2023-03-11T07:31:27;0.75;;;0.25;;
51090;SDS011;37136;43.614;3.908;2023-03-11T07:33:55;0.15;;;0.15;;
51090;SDS011;37136;43.614;3.908;2023-03-11T07:36:22;0.25;;;0.17;;
51090;SDS011;37136;43.614;3.908;2023-03-11T07:38:53;0.20;;;0.20;;
51090;SDS011;37136;43.614;3.908;2023-03-11T07:41:20;0.38;;;0.20;;
51090;SDS011;37136;43.614;3.908;2023-03-11T07:43:46;0.82;;;0.30;;
51090;SDS011;37136;43.614;3.908;2023-03-11T07:46:13;0.40;;;0.40;;
51090;SDS011;37136;43.614;3.908;2023-03-11T07:48:43;4.72;;;0.30;;
51090;SDS011;37136;43.614;3.908;2023-03-11T07:51:14;1.58;;;0.25;;
51090;SDS011;37136;43.614;3.908;2023-03-11T07:53:40;0.95;;;0.20;;
51090;SDS011;37136;43.614;3.908;2023-03-11T07:56:07;0.52;;;0.20;;
51090;SDS011;37136;43.614;3.908;2023-03-11T07:58:33;0.22;;;0.20;;
51090;SDS011;37136;43.614;3.908;2023-03-11T08:01:07;0.85;;;0.20;;
51090;SDS011;37136;43.614;3.908;2023-03-11T08:03:34;1.98;;;0.20;;
51090;SDS011;37136;43.614;3.908;2023-03-11T08:06:01;1.85;;;0.22;;
51090;SDS011;37136;43.614;3.908;2023-03-11T08:08:28;0.20;;;0.20;;
51090;SDS011;37136;43.614;3.908;2023-03-11T08:10:54;3.13;;;0.20;;
51090;SDS011;37136;43.614;3.908;2023-03-11T08:13:20;0.20;;;0.20;;
51090;SDS011;37136;43.614;3.908;2023-03-11T08:15:46;0.57;;;0.22;;
51090;SDS011;37136;43.614;3.908;2023-03-11T08:18:12;0.55;;;0.30;;
51090;SDS011;37136;43.614;3.908;2023-03-11T08:20:38;1.17;;;0.20;;
51090;SDS011;37136;43.614;3.908;2023-03-11T08:23:05;0.63;;;0.30;;
51090;SDS011;37136;43.614;3.908;2023-03-11T08:25:31;0.20;;;0.20;;
51090;SDS011;37136;43.614;3.908;2023-03-11T08:27:57;1.73;;;0.20;;
51090;SDS011;37136;43.614;3.908;2023-03-11T08:30:23;0.30;;;0.30;;
51090;SDS011;37136;43.614;3.908;2023-03-11T08:32:49;0.25;;;0.20;;
51090;SDS011;37136;43.614;3.908;2023-03-11T08:35:15;0.20;;;0.20;;
51090;SDS011;37136;43.614;3.908;2023-03-11T08:37:41;0.73;;;0.20;;
51090;SDS011;37136;43.614;3.908;2023-03-11T08:40:07;1.38;;;0.55;;
51090;SDS011;37136;43.614;3.908;2023-03-11T08:42:35;0.90;;;0.40;;
51090;SDS011;37136;43.614;3.908;2023-03-11T08:45:01;0.30;;;0.30;;
51090;SDS011;37136;43.614;3.908;2023-03-11T08:47:27;0.30;;;0.30;;
51090;SDS011;37136;43.614;3.908;2023-03-11T08:49:53;3.30;;;0.20;;
51090;SDS011;37136;43.614;3.908;2023-03-11T08:52:19;0.32;;;0.30;;
51090;SDS011;37136;43.614;3.908;2023-03-11T08:54:45;0.70;;;0.30;;
51090;SDS011;37136;43.614;3.908;2023-03-11T08:57:11;2.10;;;0.30;;
51090;SDS011;37136;43.614;3.908;2023-03-11T08:59:37;0.30;;;0.30;;
51090;SDS011;37136;43.614;3.908;2023-03-11T09:02:03;2.28;;;0.40;;
51090;SDS011;37136;43.614;3.908;2023-03-11T09:04:29;0.30;;;0.30;;
51090;SDS011;37136;43.614;3.908;2023-03-11T09:06:55;0.47;;;0.30;;
51090;SDS011;37136;43.614;3.908;2023-03-11T09:09:22;0.98;;;0.20;;
51090;SDS011;37136;43.614;3.908;2023-03-11T09:11:48;0.20;;;0.20;;
51090;SDS011;37136;43.614;3.908;2023-03-11T09:14:14;5.03;;;0.30;;
51090;SDS011;37136;43.614;3.908;2023-03-11T09:16:40;0.20;;;0.20;;
51090;SDS011;37136;43.614;3.908;2023-03-11T09:19:06;1.95;;;0.20;;
51090;SDS011;37136;43.614;3.908;2023-03-11T09:21:33;0.25;;;0.20;;
51090;SDS011;37136;43.614;3.908;2023-03-11T09:24:00;1.40;;;0.20;;
51090;SDS011;37136;43.614;3.908;2023-03-11T09:26:28;0.20;;;0.20;;
51090;SDS011;37136;43.614;3.908;2023-03-11T09:28:54;0.38;;;0.20;;
51090;SDS011;37136;43.614;3.908;2023-03-11T09:31:21;1.98;;;0.20;;
51090;SDS011;37136;43.614;3.908;2023-03-11T09:33:47;0.47;;;0.20;;
51090;SDS011;37136;43.614;3.908;2023-03-11T09:36:15;0.20;;;0.20;;
51090;SDS011;37136;43.614;3.908;2023-03-11T09:38:41;0.20;;;0.20;;
51090;SDS011;37136;43.614;3.908;2023-03-11T09:52:02;0.38;;;0.30;;
51090;SDS011;37136;43.614;3.908;2023-03-11T09:54:33;2.40;;;0.20;;
51090;SDS011;37136;43.614;3.908;2023-03-11T09:57:01;0.30;;;0.30;;
51090;SDS011;37136;43.614;3.908;2023-03-11T09:59:31;0.70;;;0.20;;
51090;SDS011;37136;43.614;3.908;2023-03-11T10:01:58;0.28;;;0.20;;
51090;SDS011;37136;43.614;3.908;2023-03-11T10:06:57;0.20;;;0.20;;
51090;SDS011;37136;43.614;3.908;2023-03-11T10:20:25;0.30;;;0.30;;
51090;SDS011;37136;43.614;3.908;2023-03-11T10:28:23;1.23;;;0.25;;
51090;SDS011;37136;43.614;3.908;2023-03-11T10:33:43;3.10;;;0.30;;
51090;SDS011;37136;43.614;3.908;2023-03-11T10:36:16;1.00;;;0.47;;
51090;SDS011;37136;43.614;3.908;2023-03-11T10:38:45;0.22;;;0.22;;
51090;SDS011;37136;43.614;3.908;2023-03-11T10:41:15;0.28;;;0.22;;
51090;SDS011;37136;43.614;3.908;2023-03-11T10:43:44;0.47;;;0.47;;
51090;SDS011;37136;43.614;3.908;2023-03-11T10:48:37;1.45;;;0.35;;
51090;SDS011;37136;43.614;3.908;2023-03-11T10:51:11;0.30;;;0.30;;
51090;SDS011;37136;43.614;3.908;2023-03-11T10:53:42;0.10;;;0.10;;
51090;SDS011;37136;43.614;3.908;2023-03-11T10:56:09;0.20;;;0.20;;
51090;SDS011;37136;43.614;3.908;2023-03-11T10:58:47;0.30;;;0.30;;
51090;SDS011;37136;43.614;3.908;2023-03-11T11:01:15;0.28;;;0.28;;
51090;SDS011;37136;43.614;3.908;2023-03-11T11:03:42;2.45;;;0.45;;
51090;SDS011;37136;43.614;3.908;2023-03-11T11:11:42;0.20;;;0.20;;
51090;SDS011;37136;43.614;3.908;2023-03-11T11:14:08;0.73;;;0.30;;
51090;SDS011;37136;43.614;3.908;2023-03-11T11:16:34;0.17;;;0.17;;
51090;SDS011;37136;43.614;3.908;2023-03-11T11:19:02;0.28;;;0.28;;
51090;SDS011;37136;43.614;3.908;2023-03-11T11:21:42;3.70;;;0.30;;
51090;SDS011;37136;43.614;3.908;2023-03-11T11:26:39;0.35;;;0.30;;
51090;SDS011;37136;43.614;3.908;2023-03-11T11:31:52;0.30;;;0.30;;
51090;SDS011;37136;43.614;3.908;2023-03-11T11:34:28;0.32;;;0.32;;
51090;SDS011;37136;43.614;3.908;2023-03-11T11:36:55;0.20;;;0.20;;
51090;SDS011;37136;43.614;3.908;2023-03-11T11:39:23;0.30;;;0.28;;
51090;SDS011;37136;43.614;3.908;2023-03-11T11:41:51;1.98;;;0.30;;
51090;SDS011;37136;43.614;3.908;2023-03-11T11:44:18;0.22;;;0.22;;
51090;SDS011;37136;43.614;3.908;2023-03-11T11:46:54;0.20;;;0.20;;
51090;SDS011;37136;43.614;3.908;2023-03-11T11:49:25;0.30;;;0.30;;
51090;SDS011;37136;43.614;3.908;2023-03-11T11:54:42;0.30;;;0.30;;
51090;SDS011;37136;43.614;3.908;2023-03-11T11:57:11;0.30;;;0.30;;
51090;SDS011;37136;43.614;3.908;2023-03-11T11:59:38;0.88;;;0.40;;
51090;SDS011;37136;43.614;3.908;2023-03-11T12:09:33;0.50;;;0.50;;
51090;SDS011;37136;43.614;3.908;2023-03-11T12:12:37;0.30;;;0.30;;
51090;SDS011;37136;43.614;3.908;2023-03-11T12:17:21;0.30;;;0.30;;
51090;SDS011;37136;43.614;3.908;2023-03-11T12:30:02;0.45;;;0.40;;
51090;SDS011;37136;43.614;3.908;2023-03-11T12:32:36;0.32;;;0.32;;
51090;SDS011;37136;43.614;3.908;2023-03-11T12:37:41;0.30;;;0.25;;
51090;SDS011;37136;43.614;3.908;2023-03-11T12:42:52;0.30;;;0.30;;
51090;SDS011;37136;43.614;3.908;2023-03-11T12:45:42;2.05;;;0.40;;
51090;SDS011;37136;43.614;3.908;2023-03-11T12:50:55;0.55;;;0.30;;
51090;SDS011;37136;43.614;3.908;2023-03-11T13:09:15;0.20;;;0.20;;
51090;SDS011;37136;43.614;3.908;2023-03-11T13:16:43;0.70;;;0.38;;
51090;SDS011;37136;43.614;3.908;2023-03-11T13:21:58;0.30;;;0.30;;
51090;SDS011;37136;43.614;3.908;2023-03-11T13:27:00;0.63;;;0.40;;
51090;SDS011;37136;43.614;3.908;2023-03-11T13:34:49;0.20;;;0.20;;
51090;SDS011;37136;43.614;3.908;2023-03-11T13:37:20;0.30;;;0.30;;
51090;SDS011;37136;43.614;3.908;2023-03-11T13:42:42;0.20;;;0.20;;
51090;SDS011;37136;43.614;3.908;2023-03-11T13:45:44;0.20;;;0.20;;
51090;SDS011;37136;43.614;3.908;2023-03-11T13:48:04;1.10;;;0.30;;
51090;SDS011;37136;43.614;3.908;2023-03-11T13:50:35;0.28;;;0.20;;
51090;SDS011;37136;43.614;3.908;2023-03-11T13:53:05;0.30;;;0.30;;
51090;SDS011;37136;43.614;3.908;2023-03-11T13:55:43;0.50;;;0.30;;
51090;SDS011;37136;43.614;3.908;2023-03-11T13:58:25;0.93;;;0.50;;
51090;SDS011;37136;43.614;3.908;2023-03-11T14:00:53;2.13;;;0.50;;
51090;SDS011;37136;43.614;3.908;2023-03-11T14:03:21;0.30;;;0.30;;
51090;SDS011;37136;43.614;3.908;2023-03-11T14:06:12;0.40;;;0.30;;
51090;SDS011;37136;43.614;3.908;2023-03-11T14:08:36;0.30;;;0.30;;
51090;SDS011;37136;43.614;3.908;2023-03-11T14:13:38;0.20;;;0.20;;
51090;SDS011;37136;43.614;3.908;2023-03-11T14:18:32;0.32;;;0.20;;
51090;SDS011;37136;43.614;3.908;2023-03-11T14:20:58;0.20;;;0.20;;
51090;SDS011;37136;43.614;3.908;2023-03-11T14:23:29;1.58;;;0.20;;
51090;SDS011;37136;43.614;3.908;2023-03-11T14:25:57;0.80;;;0.30;;
51090;SDS011;37136;43.614;3.908;2023-03-11T14:28:23;0.28;;;0.28;;
51090;SDS011;37136;43.614;3.908;2023-03-11T14:30:57;0.20;;;0.20;;
51090;SDS011;37136;43.614;3.908;2023-03-11T14:33:23;0.22;;;0.20;;
51090;SDS011;37136;43.614;3.908;2023-03-11T14:35:50;0.25;;;0.25;;
51090;SDS011;37136;43.614;3.908;2023-03-11T14:38:24;0.20;;;0.20;;
51090;SDS011;37136;43.614;3.908;2023-03-11T14:40:57;0.20;;;0.20;;
51090;SDS011;37136;43.614;3.908;2023-03-11T14:43:24;0.30;;;0.20;;
51090;SDS011;37136;43.614;3.908;2023-03-11T14:45:52;0.20;;;0.20;;
51090;SDS011;37136;43.614;3.908;2023-03-11T14:48:25;0.15;;;0.15;;
51090;SDS011;37136;43.614;3.908;2023-03-11T14:50:54;0.98;;;0.40;;
51090;SDS011;37136;43.614;3.908;2023-03-11T14:53:23;0.50;;;0.30;;
51090;SDS011;37136;43.614;3.908;2023-03-11T15:01:28;0.20;;;0.20;;
51090;SDS011;37136;43.614;3.908;2023-03-11T15:03:30;0.22;;;0.22;;
51090;SDS011;37136;43.614;3.908;2023-03-11T15:06:01;0.25;;;0.20;;
51090;SDS011;37136;43.614;3.908;2023-03-11T15:08:29;0.20;;;0.20;;
51090;SDS011;37136;43.614;3.908;2023-03-11T15:13:42;0.43;;;0.20;;
51090;SDS011;37136;43.614;3.908;2023-03-11T15:16:24;0.25;;;0.25;;
51090;SDS011;37136;43.614;3.908;2023-03-11T15:18:50;0.20;;;0.20;;
51090;SDS011;37136;43.614;3.908;2023-03-11T15:21:19;1.55;;;0.30;;
51090;SDS011;37136;43.614;3.908;2023-03-11T15:26:32;0.30;;;0.30;;
51090;SDS011;37136;43.614;3.908;2023-03-11T15:29:03;0.27;;;0.27;;
51090;SDS011;37136;43.614;3.908;2023-03-11T15:31:36;1.98;;;0.28;;
51090;SDS011;37136;43.614;3.908;2023-03-11T15:41:42;0.65;;;0.35;;
51090;SDS011;37136;43.614;3.908;2023-03-11T15:46:53;1.65;;;0.20;;
51090;SDS011;37136;43.614;3.908;2023-03-11T15:49:19;0.30;;;0.30;;
51090;SDS011;37136;43.614;3.908;2023-03-11T15:51:45;0.30;;;0.30;;
51090;SDS011;37136;43.614;3.908;2023-03-11T15:54:11;0.75;;;0.30;;
51090;SDS011;37136;43.614;3.908;2023-03-11T15:56:38;0.98;;;0.55;;
51090;SDS011;37136;43.614;3.908;2023-03-11T15:59:04;1.52;;;0.80;;
51090;SDS011;37136;43.614;3.908;2023-03-11T16:01:30;0.63;;;0.60;;
51090;SDS011;37136;43.614;3.908;2023-03-11T16:03:57;3.00;;;0.70;;
51090;SDS011;37136;43.614;3.908;2023-03-11T16:06:23;2.53;;;0.60;;
51090;SDS011;37136;43.614;3.908;2023-03-11T16:08:49;0.63;;;0.50;;
51090;SDS011;37136;43.614;3.908;2023-03-11T16:11:15;1.85;;;0.70;;
51090;SDS011;37136;43.614;3.908;2023-03-11T16:13:42;0.40;;;0.40;;
51090;SDS011;37136;43.614;3.908;2023-03-11T16:16:15;2.53;;;0.60;;
51090;SDS011;37136;43.614;3.908;2023-03-11T16:18:41;0.63;;;0.30;;
51090;SDS011;37136;43.614;3.908;2023-03-11T16:21:13;0.77;;;0.22;;
51090;SDS011;37136;43.614;3.908;2023-03-11T16:23:40;0.32;;;0.30;;
51090;SDS011;37136;43.614;3.908;2023-03-11T16:26:07;0.40;;;0.30;;
51090;SDS011;37136;43.614;3.908;2023-03-11T16:28:34;0.77;;;0.30;;
51090;SDS011;37136;43.614;3.908;2023-03-11T16:31:00;0.30;;;0.20;;
51090;SDS011;37136;43.614;3.908;2023-03-11T16:33:26;0.73;;;0.35;;
51090;SDS011;37136;43.614;3.908;2023-03-11T16:35:53;0.55;;;0.30;;
51090;SDS011;37136;43.614;3.908;2023-03-11T16:38:19;0.80;;;0.40;;
51090;SDS011;37136;43.614;3.908;2023-03-11T16:41:00;0.20;;;0.20;;
51090;SDS011;37136;43.614;3.908;2023-03-11T16:43:27;0.20;;;0.20;;
51090;SDS011;37136;43.614;3.908;2023-03-11T16:45:53;0.40;;;0.40;;
51090;SDS011;37136;43.614;3.908;2023-03-11T16:48:20;0.20;;;0.20;;
51090;SDS011;37136;43.614;3.908;2023-03-11T16:50:46;0.30;;;0.30;;
51090;SDS011;37136;43.614;3.908;2023-03-11T16:53:12;0.40;;;0.40;;
51090;SDS011;37136;43.614;3.908;2023-03-11T16:55:42;1.00;;;0.40;;
51090;SDS011;37136;43.614;3.908;2023-03-11T16:58:08;0.30;;;0.30;;
51090;SDS011;37136;43.614;3.908;2023-03-11T17:00:34;0.60;;;0.60;;
51090;SDS011;37136;43.614;3.908;2023-03-11T17:03:01;1.00;;;0.30;;
51090;SDS011;37136;43.614;3.908;2023-03-11T17:05:27;0.28;;;0.28;;
51090;SDS011;37136;43.614;3.908;2023-03-11T17:07:54;1.23;;;0.43;;
51090;SDS011;37136;43.614;3.908;2023-03-11T17:10:24;0.40;;;0.30;;
51090;SDS011;37136;43.614;3.908;2023-03-11T17:12:50;2.70;;;0.40;;
51090;SDS011;37136;43.614;3.908;2023-03-11T17:15:16;0.50;;;0.30;;
51090;SDS011;37136;43.614;3.908;2023-03-11T17:17:42;0.30;;;0.30;;
51090;SDS011;37136;43.614;3.908;2023-03-11T17:20:09;0.40;;;0.20;;